sensor_id;sensor_type;location;lat;lon;timestamp;P1;durP1;ratioP1;P2;durP2;ratioP2
72358;SDS011;60317;48.880;-0.862;2022-08-19T00:01:22;3.85;;;1.98;;
72358;SDS011;60317;48.880;-0.862;2022-08-19T00:03:54;5.23;;;1.80;;
72358;SDS011;60317;48.880;-0.862;2022-08-19T00:06:21;3.78;;;1.75;;
72358;SDS011;60317;48.880;-0.862;2022-08-19T00:08:48;4.40;;;1.48;;
72358;SDS011;60317;48.880;-0.862;2022-08-19T00:11:14;3.55;;;1.60;;
72358;SDS011;60317;48.880;-0.862;2022-08-19T00:13:51;2.67;;;1.48;;
72358;SDS011;60317;48.880;-0.862;2022-08-19T00:16:17;6.68;;;1.58;;
72358;SDS011;60317;48.880;-0.862;2022-08-19T00:18:52;4.73;;;1.57;;
72358;SDS011;60317;48.880;-0.862;2022-08-19T00:21:19;3.55;;;1.75;;
72358;SDS011;60317;48.880;-0.862;2022-08-19T00:23:45;3.38;;;1.80;;
72358;SDS011;60317;48.880;-0.862;2022-08-19T00:26:12;5.10;;;1.63;;
72358;SDS011;60317;48.880;-0.862;2022-08-19T00:28:38;3.33;;;1.40;;
72358;SDS011;60317;48.880;-0.862;2022-08-19T00:31:06;2.95;;;1.73;;
72358;SDS011;60317;48.880;-0.862;2022-08-19T00:33:34;3.45;;;1.63;;
72358;SDS011;60317;48.880;-0.862;2022-08-19T00:36:04;3.33;;;1.90;;
72358;SDS011;60317;48.880;-0.862;2022-08-19T00:38:33;3.80;;;1.83;;
72358;SDS011;60317;48.880;-0.862;2022-08-19T00:41:03;4.20;;;1.60;;
72358;SDS011;60317;48.880;-0.862;2022-08-19T00:43:30;3.55;;;1.50;;
72358;SDS011;60317;48.880;-0.862;2022-08-19T00:45:57;4.18;;;1.40;;
72358;SDS011;60317;48.880;-0.862;2022-08-19T00:48:23;5.72;;;1.60;;
72358;SDS011;60317;48.880;-0.862;2022-08-19T00:50:50;2.97;;;1.70;;
72358;SDS011;60317;48.880;-0.862;2022-08-19T00:53:20;3.55;;;1.50;;
72358;SDS011;60317;48.880;-0.862;2022-08-19T00:55:49;4.43;;;1.58;;
72358;SDS011;60317;48.880;-0.862;2022-08-19T00:58:19;3.85;;;1.80;;
72358;SDS011;60317;48.880;-0.862;2022-08-19T01:00:47;3.47;;;1.67;;
72358;SDS011;60317;48.880;-0.862;2022-08-19T01:03:15;4.63;;;1.50;;
72358;SDS011;60317;48.880;-0.862;2022-08-19T01:05:44;3.40;;;1.58;;
72358;SDS011;60317;48.880;-0.862;2022-08-19T01:08:13;3.78;;;1.70;;
72358;SDS011;60317;48.880;-0.862;2022-08-19T01:10:43;4.28;;;1.63;;
72358;SDS011;60317;48.880;-0.862;2022-08-19T01:13:13;2.97;;;1.77;;
72358;SDS011;60317;48.880;-0.862;2022-08-19T01:15:41;3.53;;;1.55;;
72358;SDS011;60317;48.880;-0.862;2022-08-19T01:18:13;3.65;;;1.80;;
72358;SDS011;60317;48.880;-0.862;2022-08-19T01:20:41;2.53;;;1.30;;
72358;SDS011;60317;48.880;-0.862;2022-08-19T01:23:10;4.40;;;1.73;;
72358;SDS011;60317;48.880;-0.862;2022-08-19T01:25:39;3.72;;;1.77;;
72358;SDS011;60317;48.880;-0.862;2022-08-19T01:28:14;3.90;;;1.42;;
72358;SDS011;60317;48.880;-0.862;2022-08-19T01:30:42;2.88;;;1.50;;
72358;SDS011;60317;48.880;-0.862;2022-08-19T01:35:42;2.80;;;1.52;;
72358;SDS011;60317;48.880;-0.862;2022-08-19T01:38:18;5.45;;;1.58;;
72358;SDS011;60317;48.880;-0.862;2022-08-19T01:40:49;6.63;;;1.58;;
72358;SDS011;60317;48.880;-0.862;2022-08-19T01:43:16;2.42;;;1.55;;
72358;SDS011;60317;48.880;-0.862;2022-08-19T01:45:43;2.88;;;1.40;;
72358;SDS011;60317;48.880;-0.862;2022-08-19T01:48:09;3.63;;;1.38;;
72358;SDS011;60317;48.880;-0.862;2022-08-19T01:50:36;2.92;;;1.40;;
72358;SDS011;60317;48.880;-0.862;2022-08-19T01:53:04;3.42;;;1.50;;
72358;SDS011;60317;48.880;-0.862;2022-08-19T01:55:35;3.10;;;1.33;;
72358;SDS011;60317;48.880;-0.862;2022-08-19T01:58:07;4.13;;;1.92;;
72358;SDS011;60317;48.880;-0.862;2022-08-19T02:00:36;3.00;;;1.50;;
72358;SDS011;60317;48.880;-0.862;2022-08-19T02:03:03;3.47;;;1.50;;
72358;SDS011;60317;48.880;-0.862;2022-08-19T02:05:29;3.00;;;1.50;;
72358;SDS011;60317;48.880;-0.862;2022-08-19T02:07:56;4.03;;;1.80;;
72358;SDS011;60317;48.880;-0.862;2022-08-19T02:10:23;2.72;;;1.55;;
72358;SDS011;60317;48.880;-0.862;2022-08-19T02:12:51;3.47;;;1.52;;
72358;SDS011;60317;48.880;-0.862;2022-08-19T02:15:18;4.50;;;1.80;;
72358;SDS011;60317;48.880;-0.862;2022-08-19T02:17:46;2.42;;;1.50;;
72358;SDS011;60317;48.880;-0.862;2022-08-19T02:20:13;4.07;;;1.60;;
72358;SDS011;60317;48.880;-0.862;2022-08-19T02:22:41;3.75;;;1.63;;
72358;SDS011;60317;48.880;-0.862;2022-08-19T02:25:09;4.47;;;1.92;;
72358;SDS011;60317;48.880;-0.862;2022-08-19T02:27:36;3.28;;;1.60;;
72358;SDS011;60317;48.880;-0.862;2022-08-19T02:30:05;4.72;;;1.70;;
72358;SDS011;60317;48.880;-0.862;2022-08-19T02:32:39;4.43;;;1.85;;
72358;SDS011;60317;48.880;-0.862;2022-08-19T02:35:10;2.83;;;1.63;;
72358;SDS011;60317;48.880;-0.862;2022-08-19T02:37:38;4.82;;;1.80;;
72358;SDS011;60317;48.880;-0.862;2022-08-19T02:40:04;2.88;;;1.60;;
72358;SDS011;60317;48.880;-0.862;2022-08-19T02:42:38;4.18;;;1.88;;
72358;SDS011;60317;48.880;-0.862;2022-08-19T02:45:06;5.68;;;2.08;;
72358;SDS011;60317;48.880;-0.862;2022-08-19T02:47:33;3.53;;;1.90;;
72358;SDS011;60317;48.880;-0.862;2022-08-19T02:50:00;4.55;;;1.80;;
72358;SDS011;60317;48.880;-0.862;2022-08-19T02:52:27;5.10;;;1.88;;
72358;SDS011;60317;48.880;-0.862;2022-08-19T02:54:54;3.50;;;2.05;;
72358;SDS011;60317;48.880;-0.862;2022-08-19T02:57:20;5.15;;;2.05;;
72358;SDS011;60317;48.880;-0.862;2022-08-19T02:59:47;3.85;;;2.03;;
72358;SDS011;60317;48.880;-0.862;2022-08-19T03:02:14;3.35;;;1.70;;
72358;SDS011;60317;48.880;-0.862;2022-08-19T03:04:41;3.28;;;1.70;;
72358;SDS011;60317;48.880;-0.862;2022-08-19T03:07:08;3.97;;;2.00;;
72358;SDS011;60317;48.880;-0.862;2022-08-19T03:09:37;5.25;;;2.08;;
72358;SDS011;60317;48.880;-0.862;2022-08-19T03:12:04;5.60;;;2.05;;
72358;SDS011;60317;48.880;-0.862;2022-08-19T03:14:31;4.00;;;1.75;;
72358;SDS011;60317;48.880;-0.862;2022-08-19T03:16:57;5.57;;;2.30;;
72358;SDS011;60317;48.880;-0.862;2022-08-19T03:19:26;3.47;;;2.15;;
72358;SDS011;60317;48.880;-0.862;2022-08-19T03:21:52;3.33;;;1.90;;
72358;SDS011;60317;48.880;-0.862;2022-08-19T03:24:19;2.45;;;1.80;;
72358;SDS011;60317;48.880;-0.862;2022-08-19T03:26:47;2.47;;;1.65;;
72358;SDS011;60317;48.880;-0.862;2022-08-19T03:29:16;3.85;;;1.90;;
72358;SDS011;60317;48.880;-0.862;2022-08-19T03:31:56;4.13;;;2.13;;
72358;SDS011;60317;48.880;-0.862;2022-08-19T03:34:23;5.20;;;1.98;;
72358;SDS011;60317;48.880;-0.862;2022-08-19T03:36:53;5.20;;;2.00;;
72358;SDS011;60317;48.880;-0.862;2022-08-19T03:39:20;4.45;;;2.10;;
72358;SDS011;60317;48.880;-0.862;2022-08-19T03:41:50;2.85;;;1.88;;
72358;SDS011;60317;48.880;-0.862;2022-08-19T03:44:38;5.43;;;2.20;;
72358;SDS011;60317;48.880;-0.862;2022-08-19T03:47:05;3.30;;;2.13;;
72358;SDS011;60317;48.880;-0.862;2022-08-19T03:49:33;6.13;;;2.30;;
72358;SDS011;60317;48.880;-0.862;2022-08-19T03:51:59;4.18;;;1.92;;
72358;SDS011;60317;48.880;-0.862;2022-08-19T03:54:26;4.22;;;2.35;;
72358;SDS011;60317;48.880;-0.862;2022-08-19T03:56:54;4.57;;;2.08;;
72358;SDS011;60317;48.880;-0.862;2022-08-19T03:59:23;4.93;;;2.28;;
72358;SDS011;60317;48.880;-0.862;2022-08-19T04:01:51;7.28;;;2.45;;
72358;SDS011;60317;48.880;-0.862;2022-08-19T04:04:18;3.53;;;2.30;;
72358;SDS011;60317;48.880;-0.862;2022-08-19T04:06:46;3.47;;;2.17;;
72358;SDS011;60317;48.880;-0.862;2022-08-19T04:09:13;3.55;;;2.10;;
72358;SDS011;60317;48.880;-0.862;2022-08-19T04:11:41;3.85;;;1.92;;
72358;SDS011;60317;48.880;-0.862;2022-08-19T04:14:10;5.25;;;1.90;;
72358;SDS011;60317;48.880;-0.862;2022-08-19T04:16:38;2.60;;;1.80;;
72358;SDS011;60317;48.880;-0.862;2022-08-19T04:19:05;3.35;;;1.90;;
72358;SDS011;60317;48.880;-0.862;2022-08-19T04:21:32;4.88;;;2.28;;
72358;SDS011;60317;48.880;-0.862;2022-08-19T04:24:01;4.40;;;2.00;;
72358;SDS011;60317;48.880;-0.862;2022-08-19T04:26:30;3.05;;;1.70;;
72358;SDS011;60317;48.880;-0.862;2022-08-19T04:28:59;3.42;;;2.00;;
72358;SDS011;60317;48.880;-0.862;2022-08-19T04:31:27;2.67;;;1.85;;
72358;SDS011;60317;48.880;-0.862;2022-08-19T04:33:55;3.35;;;1.90;;
72358;SDS011;60317;48.880;-0.862;2022-08-19T04:36:24;3.28;;;1.80;;
72358;SDS011;60317;48.880;-0.862;2022-08-19T04:38:53;3.60;;;2.00;;
72358;SDS011;60317;48.880;-0.862;2022-08-19T04:41:21;3.88;;;2.17;;
72358;SDS011;60317;48.880;-0.862;2022-08-19T04:43:48;3.20;;;1.60;;
72358;SDS011;60317;48.880;-0.862;2022-08-19T04:46:15;2.17;;;1.65;;
72358;SDS011;60317;48.880;-0.862;2022-08-19T04:49:02;3.20;;;1.90;;
72358;SDS011;60317;48.880;-0.862;2022-08-19T04:51:39;8.25;;;2.30;;
72358;SDS011;60317;48.880;-0.862;2022-08-19T04:54:07;3.55;;;1.67;;
72358;SDS011;60317;48.880;-0.862;2022-08-19T04:56:35;2.42;;;1.70;;
72358;SDS011;60317;48.880;-0.862;2022-08-19T04:59:01;3.60;;;1.80;;
72358;SDS011;60317;48.880;-0.862;2022-08-19T05:01:28;4.43;;;1.98;;
72358;SDS011;60317;48.880;-0.862;2022-08-19T05:03:57;2.53;;;1.52;;
72358;SDS011;60317;48.880;-0.862;2022-08-19T05:06:23;4.65;;;1.90;;
72358;SDS011;60317;48.880;-0.862;2022-08-19T05:08:50;4.13;;;1.50;;
72358;SDS011;60317;48.880;-0.862;2022-08-19T05:11:18;3.22;;;1.70;;
72358;SDS011;60317;48.880;-0.862;2022-08-19T05:13:53;2.88;;;1.50;;
72358;SDS011;60317;48.880;-0.862;2022-08-19T05:16:20;3.08;;;1.70;;
72358;SDS011;60317;48.880;-0.862;2022-08-19T05:18:48;3.20;;;1.70;;
72358;SDS011;60317;48.880;-0.862;2022-08-19T05:21:15;2.22;;;1.60;;
72358;SDS011;60317;48.880;-0.862;2022-08-19T05:23:44;2.40;;;1.73;;
72358;SDS011;60317;48.880;-0.862;2022-08-19T05:26:11;2.80;;;1.70;;
72358;SDS011;60317;48.880;-0.862;2022-08-19T05:28:37;3.67;;;1.67;;
72358;SDS011;60317;48.880;-0.862;2022-08-19T05:31:05;2.65;;;1.38;;
72358;SDS011;60317;48.880;-0.862;2022-08-19T05:33:32;2.78;;;1.60;;
72358;SDS011;60317;48.880;-0.862;2022-08-19T05:35:58;2.97;;;1.70;;
72358;SDS011;60317;48.880;-0.862;2022-08-19T05:38:25;2.50;;;1.50;;
72358;SDS011;60317;48.880;-0.862;2022-08-19T05:40:51;2.80;;;1.50;;
72358;SDS011;60317;48.880;-0.862;2022-08-19T05:43:18;3.70;;;1.77;;
72358;SDS011;60317;48.880;-0.862;2022-08-19T05:45:44;2.60;;;1.60;;
72358;SDS011;60317;48.880;-0.862;2022-08-19T05:48:12;1.90;;;1.35;;
72358;SDS011;60317;48.880;-0.862;2022-08-19T05:50:40;2.38;;;1.65;;
72358;SDS011;60317;48.880;-0.862;2022-08-19T05:53:07;2.33;;;1.50;;
72358;SDS011;60317;48.880;-0.862;2022-08-19T05:55:34;3.55;;;1.55;;
72358;SDS011;60317;48.880;-0.862;2022-08-19T05:58:00;3.10;;;1.88;;
72358;SDS011;60317;48.880;-0.862;2022-08-19T06:00:27;4.88;;;1.60;;
72358;SDS011;60317;48.880;-0.862;2022-08-19T06:02:53;3.22;;;1.70;;
72358;SDS011;60317;48.880;-0.862;2022-08-19T06:05:21;2.42;;;1.55;;
72358;SDS011;60317;48.880;-0.862;2022-08-19T06:07:48;2.88;;;1.50;;
72358;SDS011;60317;48.880;-0.862;2022-08-19T06:10:15;2.70;;;1.60;;
72358;SDS011;60317;48.880;-0.862;2022-08-19T06:12:41;3.47;;;1.63;;
72358;SDS011;60317;48.880;-0.862;2022-08-19T06:15:08;1.77;;;1.30;;
72358;SDS011;60317;48.880;-0.862;2022-08-19T06:17:38;1.98;;;1.40;;
72358;SDS011;60317;48.880;-0.862;2022-08-19T06:20:05;2.03;;;1.45;;
72358;SDS011;60317;48.880;-0.862;2022-08-19T06:22:38;1.83;;;1.40;;
72358;SDS011;60317;48.880;-0.862;2022-08-19T06:25:05;2.67;;;1.45;;
72358;SDS011;60317;48.880;-0.862;2022-08-19T06:27:32;2.97;;;1.42;;
72358;SDS011;60317;48.880;-0.862;2022-08-19T06:29:59;2.03;;;1.50;;
72358;SDS011;60317;48.880;-0.862;2022-08-19T06:32:26;3.35;;;1.35;;
72358;SDS011;60317;48.880;-0.862;2022-08-19T06:34:53;3.40;;;1.52;;
72358;SDS011;60317;48.880;-0.862;2022-08-19T06:37:19;2.25;;;1.10;;
72358;SDS011;60317;48.880;-0.862;2022-08-19T06:39:48;3.38;;;1.40;;
72358;SDS011;60317;48.880;-0.862;2022-08-19T06:42:15;3.38;;;1.50;;
72358;SDS011;60317;48.880;-0.862;2022-08-19T06:44:43;2.42;;;1.23;;
72358;SDS011;60317;48.880;-0.862;2022-08-19T06:47:15;2.00;;;1.25;;
72358;SDS011;60317;48.880;-0.862;2022-08-19T06:49:52;1.52;;;1.30;;
72358;SDS011;60317;48.880;-0.862;2022-08-19T06:52:19;3.28;;;1.27;;
72358;SDS011;60317;48.880;-0.862;2022-08-19T06:54:47;2.20;;;1.20;;
72358;SDS011;60317;48.880;-0.862;2022-08-19T06:57:21;2.50;;;1.38;;
72358;SDS011;60317;48.880;-0.862;2022-08-19T06:59:48;3.17;;;1.23;;
72358;SDS011;60317;48.880;-0.862;2022-08-19T07:02:14;1.65;;;1.13;;
72358;SDS011;60317;48.880;-0.862;2022-08-19T07:04:46;1.85;;;1.27;;
72358;SDS011;60317;48.880;-0.862;2022-08-19T07:07:13;1.55;;;1.27;;
72358;SDS011;60317;48.880;-0.862;2022-08-19T07:09:45;2.33;;;1.23;;
72358;SDS011;60317;48.880;-0.862;2022-08-19T07:12:27;1.75;;;1.30;;
72358;SDS011;60317;48.880;-0.862;2022-08-19T07:14:56;2.22;;;1.08;;
72358;SDS011;60317;48.880;-0.862;2022-08-19T07:17:23;1.98;;;1.20;;
72358;SDS011;60317;48.880;-0.862;2022-08-19T07:19:50;1.95;;;1.13;;
72358;SDS011;60317;48.880;-0.862;2022-08-19T07:22:20;2.15;;;1.30;;
72358;SDS011;60317;48.880;-0.862;2022-08-19T07:24:49;1.92;;;1.33;;
72358;SDS011;60317;48.880;-0.862;2022-08-19T07:27:17;1.23;;;1.10;;
72358;SDS011;60317;48.880;-0.862;2022-08-19T07:29:51;1.97;;;1.40;;
72358;SDS011;60317;48.880;-0.862;2022-08-19T07:32:21;1.88;;;1.10;;
72358;SDS011;60317;48.880;-0.862;2022-08-19T07:34:48;2.90;;;0.82;;
72358;SDS011;60317;48.880;-0.862;2022-08-19T07:37:15;3.35;;;1.27;;
72358;SDS011;60317;48.880;-0.862;2022-08-19T07:39:42;4.50;;;1.55;;
72358;SDS011;60317;48.880;-0.862;2022-08-19T07:42:09;1.92;;;1.15;;
72358;SDS011;60317;48.880;-0.862;2022-08-19T07:44:39;1.42;;;1.15;;
72358;SDS011;60317;48.880;-0.862;2022-08-19T07:47:12;2.33;;;1.20;;
72358;SDS011;60317;48.880;-0.862;2022-08-19T07:49:59;2.13;;;1.08;;
72358;SDS011;60317;48.880;-0.862;2022-08-19T07:52:25;2.53;;;1.13;;
72358;SDS011;60317;48.880;-0.862;2022-08-19T07:54:52;1.88;;;1.20;;
72358;SDS011;60317;48.880;-0.862;2022-08-19T07:57:18;2.05;;;0.93;;
72358;SDS011;60317;48.880;-0.862;2022-08-19T07:59:45;1.85;;;1.10;;
72358;SDS011;60317;48.880;-0.862;2022-08-19T08:02:12;3.35;;;1.10;;
72358;SDS011;60317;48.880;-0.862;2022-08-19T08:04:39;2.65;;;1.10;;
72358;SDS011;60317;48.880;-0.862;2022-08-19T08:07:06;1.65;;;1.00;;
72358;SDS011;60317;48.880;-0.862;2022-08-19T08:09:34;1.90;;;0.95;;
72358;SDS011;60317;48.880;-0.862;2022-08-19T08:12:05;2.00;;;1.02;;
72358;SDS011;60317;48.880;-0.862;2022-08-19T08:14:56;3.17;;;1.30;;
72358;SDS011;60317;48.880;-0.862;2022-08-19T08:17:26;2.83;;;1.13;;
72358;SDS011;60317;48.880;-0.862;2022-08-19T08:20:14;3.05;;;1.20;;
72358;SDS011;60317;48.880;-0.862;2022-08-19T08:22:42;2.97;;;1.20;;
72358;SDS011;60317;48.880;-0.862;2022-08-19T08:25:10;2.63;;;1.17;;
72358;SDS011;60317;48.880;-0.862;2022-08-19T08:27:41;2.55;;;1.20;;
72358;SDS011;60317;48.880;-0.862;2022-08-19T08:30:12;2.53;;;1.00;;
72358;SDS011;60317;48.880;-0.862;2022-08-19T08:32:42;2.53;;;1.30;;
72358;SDS011;60317;48.880;-0.862;2022-08-19T08:35:11;1.55;;;1.13;;
72358;SDS011;60317;48.880;-0.862;2022-08-19T08:37:40;1.30;;;1.08;;
72358;SDS011;60317;48.880;-0.862;2022-08-19T08:40:10;3.10;;;1.23;;
72358;SDS011;60317;48.880;-0.862;2022-08-19T08:42:48;2.33;;;1.20;;
72358;SDS011;60317;48.880;-0.862;2022-08-19T08:45:20;3.20;;;1.47;;
72358;SDS011;60317;48.880;-0.862;2022-08-19T08:47:49;3.65;;;1.58;;
72358;SDS011;60317;48.880;-0.862;2022-08-19T08:50:19;4.10;;;1.70;;
72358;SDS011;60317;48.880;-0.862;2022-08-19T08:52:52;3.17;;;1.30;;
72358;SDS011;60317;48.880;-0.862;2022-08-19T08:55:23;4.15;;;1.40;;
72358;SDS011;60317;48.880;-0.862;2022-08-19T08:57:52;2.38;;;1.13;;
72358;SDS011;60317;48.880;-0.862;2022-08-19T09:00:22;3.05;;;1.02;;
72358;SDS011;60317;48.880;-0.862;2022-08-19T09:02:52;4.55;;;1.50;;
72358;SDS011;60317;48.880;-0.862;2022-08-19T09:05:20;5.45;;;1.50;;
72358;SDS011;60317;48.880;-0.862;2022-08-19T09:07:53;2.22;;;1.30;;
72358;SDS011;60317;48.880;-0.862;2022-08-19T09:10:28;3.65;;;1.30;;
72358;SDS011;60317;48.880;-0.862;2022-08-19T09:13:03;1.95;;;1.15;;
72358;SDS011;60317;48.880;-0.862;2022-08-19T09:15:40;2.40;;;1.20;;
72358;SDS011;60317;48.880;-0.862;2022-08-19T09:18:11;3.40;;;1.38;;
72358;SDS011;60317;48.880;-0.862;2022-08-19T09:20:44;3.47;;;1.15;;
72358;SDS011;60317;48.880;-0.862;2022-08-19T09:23:12;3.83;;;1.25;;
72358;SDS011;60317;48.880;-0.862;2022-08-19T09:25:38;4.57;;;1.20;;
72358;SDS011;60317;48.880;-0.862;2022-08-19T09:28:05;3.10;;;1.40;;
72358;SDS011;60317;48.880;-0.862;2022-08-19T09:30:47;1.88;;;1.10;;
72358;SDS011;60317;48.880;-0.862;2022-08-19T09:33:15;3.00;;;1.38;;
72358;SDS011;60317;48.880;-0.862;2022-08-19T09:35:41;4.53;;;1.25;;
72358;SDS011;60317;48.880;-0.862;2022-08-19T09:38:18;4.28;;;1.15;;
72358;SDS011;60317;48.880;-0.862;2022-08-19T09:40:44;5.88;;;1.50;;
72358;SDS011;60317;48.880;-0.862;2022-08-19T09:43:11;3.80;;;1.35;;
72358;SDS011;60317;48.880;-0.862;2022-08-19T09:45:39;3.10;;;1.33;;
72358;SDS011;60317;48.880;-0.862;2022-08-19T09:48:05;4.07;;;1.45;;
72358;SDS011;60317;48.880;-0.862;2022-08-19T09:50:33;3.70;;;1.60;;
72358;SDS011;60317;48.880;-0.862;2022-08-19T09:53:00;2.40;;;1.20;;
72358;SDS011;60317;48.880;-0.862;2022-08-19T09:55:26;3.17;;;1.30;;
72358;SDS011;60317;48.880;-0.862;2022-08-19T09:57:57;3.05;;;1.20;;
72358;SDS011;60317;48.880;-0.862;2022-08-19T10:00:24;4.82;;;1.30;;
72358;SDS011;60317;48.880;-0.862;2022-08-19T10:02:50;3.22;;;1.40;;
72358;SDS011;60317;48.880;-0.862;2022-08-19T10:05:18;3.08;;;1.30;;
72358;SDS011;60317;48.880;-0.862;2022-08-19T10:07:53;6.40;;;1.70;;
72358;SDS011;60317;48.880;-0.862;2022-08-19T10:10:22;2.75;;;1.30;;
72358;SDS011;60317;48.880;-0.862;2022-08-19T10:12:49;4.47;;;1.30;;
72358;SDS011;60317;48.880;-0.862;2022-08-19T10:15:16;4.10;;;1.13;;
72358;SDS011;60317;48.880;-0.862;2022-08-19T10:17:54;2.72;;;1.40;;
72358;SDS011;60317;48.880;-0.862;2022-08-19T10:20:21;2.67;;;1.15;;
72358;SDS011;60317;48.880;-0.862;2022-08-19T10:22:47;5.05;;;1.30;;
72358;SDS011;60317;48.880;-0.862;2022-08-19T10:25:19;4.00;;;1.30;;
72358;SDS011;60317;48.880;-0.862;2022-08-19T10:27:46;3.05;;;1.20;;
72358;SDS011;60317;48.880;-0.862;2022-08-19T10:30:16;1.90;;;1.10;;
72358;SDS011;60317;48.880;-0.862;2022-08-19T10:32:45;2.05;;;0.98;;
72358;SDS011;60317;48.880;-0.862;2022-08-19T10:35:12;4.60;;;0.95;;
72358;SDS011;60317;48.880;-0.862;2022-08-19T10:37:46;1.52;;;1.00;;
72358;SDS011;60317;48.880;-0.862;2022-08-19T10:40:28;5.95;;;1.20;;
72358;SDS011;60317;48.880;-0.862;2022-08-19T10:42:55;1.55;;;0.85;;
72358;SDS011;60317;48.880;-0.862;2022-08-19T10:45:22;1.67;;;0.90;;
72358;SDS011;60317;48.880;-0.862;2022-08-19T10:47:49;2.80;;;1.50;;
72358;SDS011;60317;48.880;-0.862;2022-08-19T10:50:15;3.75;;;1.17;;
72358;SDS011;60317;48.880;-0.862;2022-08-19T10:52:43;1.75;;;1.00;;
72358;SDS011;60317;48.880;-0.862;2022-08-19T10:55:15;2.13;;;1.00;;
72358;SDS011;60317;48.880;-0.862;2022-08-19T10:57:44;3.42;;;1.30;;
72358;SDS011;60317;48.880;-0.862;2022-08-19T11:00:27;2.72;;;1.20;;
72358;SDS011;60317;48.880;-0.862;2022-08-19T11:02:53;4.00;;;1.20;;
72358;SDS011;60317;48.880;-0.862;2022-08-19T11:05:20;3.75;;;1.30;;
72358;SDS011;60317;48.880;-0.862;2022-08-19T11:07:49;3.58;;;1.20;;
72358;SDS011;60317;48.880;-0.862;2022-08-19T11:10:16;3.85;;;1.42;;
72358;SDS011;60317;48.880;-0.862;2022-08-19T11:12:48;3.47;;;1.40;;
72358;SDS011;60317;48.880;-0.862;2022-08-19T11:15:15;4.10;;;0.93;;
72358;SDS011;60317;48.880;-0.862;2022-08-19T11:17:42;4.13;;;1.30;;
72358;SDS011;60317;48.880;-0.862;2022-08-19T11:20:09;2.95;;;1.30;;
72358;SDS011;60317;48.880;-0.862;2022-08-19T11:22:37;4.07;;;1.27;;
72358;SDS011;60317;48.880;-0.862;2022-08-19T11:25:07;3.05;;;1.10;;
72358;SDS011;60317;48.880;-0.862;2022-08-19T11:27:37;1.88;;;1.08;;
72358;SDS011;60317;48.880;-0.862;2022-08-19T11:30:06;2.25;;;0.90;;
72358;SDS011;60317;48.880;-0.862;2022-08-19T11:32:38;2.03;;;0.98;;
72358;SDS011;60317;48.880;-0.862;2022-08-19T11:35:09;2.45;;;0.90;;
72358;SDS011;60317;48.880;-0.862;2022-08-19T11:37:36;1.98;;;1.17;;
72358;SDS011;60317;48.880;-0.862;2022-08-19T11:40:03;3.83;;;0.98;;
72358;SDS011;60317;48.880;-0.862;2022-08-19T11:42:30;3.13;;;1.10;;
72358;SDS011;60317;48.880;-0.862;2022-08-19T11:44:57;1.88;;;0.60;;
72358;SDS011;60317;48.880;-0.862;2022-08-19T11:47:25;1.45;;;0.75;;
72358;SDS011;60317;48.880;-0.862;2022-08-19T11:49:52;1.73;;;0.70;;
72358;SDS011;60317;48.880;-0.862;2022-08-19T11:52:18;0.80;;;0.40;;
72358;SDS011;60317;48.880;-0.862;2022-08-19T11:54:45;2.05;;;0.80;;
72358;SDS011;60317;48.880;-0.862;2022-08-19T11:57:11;0.50;;;0.50;;
72358;SDS011;60317;48.880;-0.862;2022-08-19T11:59:38;0.98;;;0.80;;
72358;SDS011;60317;48.880;-0.862;2022-08-19T12:02:04;1.73;;;0.77;;
72358;SDS011;60317;48.880;-0.862;2022-08-19T12:04:32;0.93;;;0.73;;
72358;SDS011;60317;48.880;-0.862;2022-08-19T12:07:00;1.55;;;0.75;;
72358;SDS011;60317;48.880;-0.862;2022-08-19T12:09:27;2.25;;;0.73;;
72358;SDS011;60317;48.880;-0.862;2022-08-19T12:11:56;1.48;;;0.50;;
72358;SDS011;60317;48.880;-0.862;2022-08-19T12:14:22;1.08;;;0.60;;
72358;SDS011;60317;48.880;-0.862;2022-08-19T12:16:49;1.52;;;0.60;;
72358;SDS011;60317;48.880;-0.862;2022-08-19T12:19:17;0.63;;;0.52;;
72358;SDS011;60317;48.880;-0.862;2022-08-19T12:21:49;0.90;;;0.60;;
72358;SDS011;60317;48.880;-0.862;2022-08-19T12:24:17;0.73;;;0.50;;
72358;SDS011;60317;48.880;-0.862;2022-08-19T12:26:43;1.23;;;0.70;;
72358;SDS011;60317;48.880;-0.862;2022-08-19T12:29:19;0.73;;;0.63;;
72358;SDS011;60317;48.880;-0.862;2022-08-19T12:31:49;3.78;;;0.60;;
72358;SDS011;60317;48.880;-0.862;2022-08-19T12:34:16;1.17;;;0.45;;
72358;SDS011;60317;48.880;-0.862;2022-08-19T12:36:42;2.75;;;0.82;;
72358;SDS011;60317;48.880;-0.862;2022-08-19T12:39:10;1.35;;;0.60;;
72358;SDS011;60317;48.880;-0.862;2022-08-19T12:41:38;0.85;;;0.60;;
72358;SDS011;60317;48.880;-0.862;2022-08-19T12:44:19;0.80;;;0.50;;
72358;SDS011;60317;48.880;-0.862;2022-08-19T12:46:54;1.77;;;0.60;;
72358;SDS011;60317;48.880;-0.862;2022-08-19T12:49:20;0.60;;;0.43;;
72358;SDS011;60317;48.880;-0.862;2022-08-19T12:52:07;1.60;;;0.60;;
72358;SDS011;60317;48.880;-0.862;2022-08-19T12:54:36;1.58;;;0.70;;
72358;SDS011;60317;48.880;-0.862;2022-08-19T12:57:04;0.98;;;0.75;;
72358;SDS011;60317;48.880;-0.862;2022-08-19T12:59:31;0.52;;;0.35;;
72358;SDS011;60317;48.880;-0.862;2022-08-19T13:01:58;0.60;;;0.40;;
72358;SDS011;60317;48.880;-0.862;2022-08-19T13:04:24;0.63;;;0.25;;
72358;SDS011;60317;48.880;-0.862;2022-08-19T13:06:51;1.58;;;0.50;;
72358;SDS011;60317;48.880;-0.862;2022-08-19T13:09:17;1.13;;;0.40;;
72358;SDS011;60317;48.880;-0.862;2022-08-19T13:11:45;0.73;;;0.50;;
72358;SDS011;60317;48.880;-0.862;2022-08-19T13:14:12;1.23;;;0.40;;
72358;SDS011;60317;48.880;-0.862;2022-08-19T13:16:38;0.52;;;0.40;;
72358;SDS011;60317;48.880;-0.862;2022-08-19T13:19:05;2.28;;;0.77;;
72358;SDS011;60317;48.880;-0.862;2022-08-19T13:21:31;1.27;;;0.45;;
72358;SDS011;60317;48.880;-0.862;2022-08-19T13:23:58;1.55;;;0.60;;
72358;SDS011;60317;48.880;-0.862;2022-08-19T13:26:25;0.85;;;0.40;;
72358;SDS011;60317;48.880;-0.862;2022-08-19T13:28:52;1.13;;;0.45;;
72358;SDS011;60317;48.880;-0.862;2022-08-19T13:31:20;1.30;;;0.63;;
72358;SDS011;60317;48.880;-0.862;2022-08-19T13:33:48;0.57;;;0.57;;
72358;SDS011;60317;48.880;-0.862;2022-08-19T13:36:14;2.10;;;0.70;;
72358;SDS011;60317;48.880;-0.862;2022-08-19T13:38:41;2.22;;;0.70;;
72358;SDS011;60317;48.880;-0.862;2022-08-19T13:41:08;1.35;;;0.45;;
72358;SDS011;60317;48.880;-0.862;2022-08-19T13:43:40;1.42;;;0.80;;
72358;SDS011;60317;48.880;-0.862;2022-08-19T13:46:09;0.77;;;0.60;;
72358;SDS011;60317;48.880;-0.862;2022-08-19T13:48:37;0.98;;;0.68;;
72358;SDS011;60317;48.880;-0.862;2022-08-19T13:51:04;0.90;;;0.52;;
72358;SDS011;60317;48.880;-0.862;2022-08-19T13:53:31;2.28;;;1.13;;
72358;SDS011;60317;48.880;-0.862;2022-08-19T13:55:57;0.63;;;0.55;;
72358;SDS011;60317;48.880;-0.862;2022-08-19T13:58:24;2.67;;;1.00;;
72358;SDS011;60317;48.880;-0.862;2022-08-19T14:00:50;1.02;;;0.75;;
72358;SDS011;60317;48.880;-0.862;2022-08-19T14:03:18;0.80;;;0.57;;
72358;SDS011;60317;48.880;-0.862;2022-08-19T14:05:45;2.03;;;0.77;;
72358;SDS011;60317;48.880;-0.862;2022-08-19T14:08:12;2.15;;;0.60;;
72358;SDS011;60317;48.880;-0.862;2022-08-19T14:10:38;1.30;;;0.60;;
72358;SDS011;60317;48.880;-0.862;2022-08-19T14:13:05;2.10;;;0.60;;
72358;SDS011;60317;48.880;-0.862;2022-08-19T14:15:31;1.95;;;0.63;;
72358;SDS011;60317;48.880;-0.862;2022-08-19T14:17:58;1.30;;;0.68;;
72358;SDS011;60317;48.880;-0.862;2022-08-19T14:20:26;1.25;;;0.60;;
72358;SDS011;60317;48.880;-0.862;2022-08-19T14:22:53;1.05;;;0.50;;
72358;SDS011;60317;48.880;-0.862;2022-08-19T14:25:21;2.05;;;0.60;;
72358;SDS011;60317;48.880;-0.862;2022-08-19T14:27:49;2.28;;;0.75;;
72358;SDS011;60317;48.880;-0.862;2022-08-19T14:30:17;1.85;;;0.57;;
72358;SDS011;60317;48.880;-0.862;2022-08-19T14:32:47;1.98;;;0.60;;
72358;SDS011;60317;48.880;-0.862;2022-08-19T14:35:14;4.05;;;0.57;;
72358;SDS011;60317;48.880;-0.862;2022-08-19T14:37:43;1.63;;;0.50;;
72358;SDS011;60317;48.880;-0.862;2022-08-19T14:40:12;1.50;;;0.70;;
72358;SDS011;60317;48.880;-0.862;2022-08-19T14:42:40;0.65;;;0.57;;
72358;SDS011;60317;48.880;-0.862;2022-08-19T14:45:08;1.40;;;0.70;;